createdAt,value
2022-10-01T00:01:24.139Z,16.44
2022-10-01T00:03:52.217Z,16.42
2022-10-01T00:06:21.109Z,16.22
2022-10-01T00:08:49.830Z,16.37
2022-10-01T00:11:18.376Z,16.37
2022-10-01T00:13:46.484Z,16.35
2022-10-01T00:16:15.789Z,16.31
2022-10-01T00:18:45.803Z,16.31
2022-10-01T00:21:16.325Z,16.30
2022-10-01T00:23:44.290Z,16.24
2022-10-01T00:26:13.464Z,16.20
2022-10-01T00:28:41.497Z,16.16
2022-10-01T00:31:09.637Z,16.10
2022-10-01T00:33:38.530Z,16.07
2022-10-01T00:36:08.697Z,16.06
2022-10-01T00:38:36.723Z,16.04
2022-10-01T00:41:04.863Z,15.97
2022-10-01T00:43:34.351Z,16.00
2022-10-01T00:46:03.847Z,15.96
2022-10-01T00:48:32.128Z,15.96
2022-10-01T00:51:00.081Z,15.93
2022-10-01T00:53:29.429Z,15.89
2022-10-01T00:55:58.264Z,15.85
2022-10-01T00:58:26.378Z,15.82
2022-10-01T01:00:56.923Z,15.75
2022-10-01T01:03:24.940Z,15.68
2022-10-01T01:05:52.929Z,15.63
2022-10-01T01:08:20.892Z,15.61
2022-10-01T01:10:54.553Z,15.54
2022-10-01T01:13:25.587Z,15.52
2022-10-01T01:15:56.579Z,15.50
2022-10-01T01:18:27.712Z,15.49
2022-10-01T01:21:24.633Z,15.43
2022-10-01T01:24:22.579Z,15.41
2022-10-01T01:26:56.226Z,15.46
2022-10-01T01:29:27.538Z,15.41
2022-10-01T01:31:56.429Z,15.40
2022-10-01T01:34:28.324Z,15.35
2022-10-01T01:36:58.685Z,15.29
2022-10-01T01:39:27.148Z,15.23
2022-10-01T01:41:57.157Z,15.23
2022-10-01T01:44:28.727Z,15.24
2022-10-01T01:46:57.592Z,15.27
2022-10-01T01:49:25.582Z,15.22
2022-10-01T01:51:55.383Z,15.24
2022-10-01T01:54:23.367Z,15.22
2022-10-01T01:56:51.311Z,15.20
2022-10-01T01:59:19.661Z,15.23
2022-10-01T02:01:49.571Z,15.19
2022-10-01T02:04:20.663Z,15.16
2022-10-01T02:06:55.794Z,15.16
2022-10-01T02:09:28.175Z,15.14
2022-10-01T02:12:14.865Z,15.15
2022-10-01T02:14:47.528Z,15.13
2022-10-01T02:17:17.816Z,15.13
2022-10-01T02:19:48.203Z,15.17
2022-10-01T02:22:18.652Z,15.10
2022-10-01T02:24:48.184Z,15.18
2022-10-01T02:27:19.051Z,15.17
2022-10-01T02:29:47.102Z,15.15
2022-10-01T02:32:16.459Z,15.18
2022-10-01T02:34:44.471Z,15.22
2022-10-01T02:37:12.577Z,15.24
2022-10-01T02:39:41.014Z,15.30
2022-10-01T02:42:09.434Z,15.31
2022-10-01T02:44:40.132Z,15.32
2022-10-01T02:47:09.138Z,15.24
2022-10-01T02:49:39.567Z,15.33
2022-10-01T02:52:10.138Z,15.38
2022-10-01T02:54:40.273Z,15.38
2022-10-01T02:57:27.583Z,15.37
2022-10-01T02:59:57.799Z,15.25
2022-10-01T03:02:27.565Z,15.17
2022-10-01T03:04:57.324Z,15.09
2022-10-01T03:07:25.401Z,15.03
2022-10-01T03:09:53.425Z,15.00
2022-10-01T03:12:22.577Z,14.93
2022-10-01T03:14:50.782Z,14.88
2022-10-01T03:17:18.761Z,14.84
2022-10-01T03:19:46.750Z,14.81
2022-10-01T03:22:18.303Z,14.80
2022-10-01T03:24:46.285Z,14.75
2022-10-01T03:27:14.234Z,14.76
2022-10-01T03:29:42.194Z,14.80
2022-10-01T03:32:10.413Z,14.83
2022-10-01T03:34:38.379Z,14.84
2022-10-01T03:37:06.344Z,14.86
2022-10-01T03:39:35.714Z,14.82
2022-10-01T03:42:05.968Z,14.92
2022-10-01T03:44:34.046Z,14.95
2022-10-01T03:47:02.065Z,14.95
2022-10-01T03:49:30.092Z,14.94
2022-10-01T03:51:58.031Z,14.93
2022-10-01T03:54:26.373Z,14.97
2022-10-01T03:56:55.698Z,15.00
2022-10-01T03:59:23.673Z,15.00
2022-10-01T04:01:51.854Z,15.01
2022-10-01T04:04:19.908Z,15.03
2022-10-01T04:06:47.967Z,15.07
2022-10-01T04:09:15.903Z,15.06
2022-10-01T04:11:43.850Z,15.01
2022-10-01T04:14:13.188Z,14.99
2022-10-01T04:16:41.232Z,14.98
2022-10-01T04:19:09.164Z,14.93
2022-10-01T04:21:38.222Z,14.91
2022-10-01T04:24:06.341Z,14.83
2022-10-01T04:26:34.297Z,14.81
2022-10-01T04:29:02.253Z,14.76
2022-10-01T04:31:35.309Z,14.75
2022-10-01T04:34:03.847Z,14.75
2022-10-01T04:36:31.858Z,14.78
2022-10-01T04:39:02.543Z,14.80
2022-10-01T04:41:31.890Z,14.88
2022-10-01T04:44:00.633Z,14.98
2022-10-01T04:46:29.497Z,15.27
2022-10-01T04:48:58.887Z,16.03
2022-10-01T04:51:26.859Z,17.14
2022-10-01T04:53:55.676Z,18.05
2022-10-01T04:56:23.730Z,18.54
2022-10-01T04:58:51.925Z,18.88
2022-10-01T05:01:19.954Z,19.16
2022-10-01T05:03:48.459Z,19.39
2022-10-01T05:06:17.834Z,19.51
2022-10-01T05:08:45.795Z,19.72
2022-10-01T05:11:13.723Z,19.83
2022-10-01T05:13:41.774Z,19.80
2022-10-01T05:16:09.776Z,19.76
2022-10-01T05:18:39.317Z,19.81
2022-10-01T05:21:07.717Z,19.76
2022-10-01T05:23:37.103Z,19.76
2022-10-01T05:26:05.886Z,19.67
2022-10-01T05:28:34.367Z,20.09
2022-10-01T05:31:02.519Z,19.94
2022-10-01T05:33:30.756Z,20.03
2022-10-01T05:35:58.952Z,20.02
2022-10-01T05:38:26.996Z,20.09
2022-10-01T05:40:56.348Z,20.30
2022-10-01T05:43:25.626Z,20.30
2022-10-01T05:45:53.617Z,20.52
2022-10-01T05:48:21.864Z,20.64
2022-10-01T05:50:50.027Z,20.71
2022-10-01T05:53:18.007Z,20.94
2022-10-01T05:55:46.021Z,21.17
2022-10-01T05:58:15.637Z,21.19
2022-10-01T06:00:43.670Z,21.23
2022-10-01T06:03:12.939Z,21.38
2022-10-01T06:05:41.092Z,21.41
2022-10-01T06:08:09.716Z,21.70
2022-10-01T06:10:37.764Z,21.64
2022-10-01T06:13:06.059Z,21.44
2022-10-01T06:15:37.884Z,21.47
2022-10-01T06:18:06.487Z,21.69
2022-10-01T06:20:34.589Z,22.04
2022-10-01T06:23:02.635Z,22.37
2022-10-01T06:25:31.074Z,22.92
2022-10-01T06:27:59.818Z,23.26
2022-10-01T06:30:28.442Z,23.86
2022-10-01T06:33:02.818Z,24.55
2022-10-01T06:35:30.812Z,25.05
2022-10-01T06:37:58.830Z,24.74
2022-10-01T06:40:26.974Z,24.54
2022-10-01T06:42:58.441Z,24.93
2022-10-01T06:45:26.669Z,24.99
2022-10-01T06:47:55.616Z,24.85
2022-10-01T06:50:25.508Z,24.78
2022-10-01T06:52:53.554Z,24.55
2022-10-01T06:55:22.126Z,24.32
2022-10-01T06:57:54.557Z,24.26
2022-10-01T07:00:22.691Z,24.25
2022-10-01T07:02:50.889Z,24.30
2022-10-01T07:05:19.036Z,24.32
2022-10-01T07:07:49.225Z,24.39
2022-10-01T07:10:17.814Z,24.47
2022-10-01T07:12:46.230Z,24.68
2022-10-01T07:15:14.200Z,24.93
2022-10-01T07:17:44.583Z,25.22
2022-10-01T07:20:12.619Z,25.40
2022-10-01T07:22:40.968Z,25.56
2022-10-01T07:25:10.885Z,25.61
2022-10-01T07:27:38.987Z,25.65
2022-10-01T07:30:08.251Z,25.89
2022-10-01T07:32:36.408Z,26.15
2022-10-01T07:35:05.991Z,26.28
2022-10-01T07:37:33.988Z,26.45
2022-10-01T07:40:06.681Z,26.38
2022-10-01T07:42:37.396Z,26.45
2022-10-01T07:45:06.841Z,26.54
2022-10-01T07:47:34.855Z,26.63
2022-10-01T07:50:03.049Z,26.65
2022-10-01T07:52:31.118Z,26.76
2022-10-01T07:54:59.117Z,26.84
2022-10-01T07:57:27.176Z,26.84
2022-10-01T07:59:56.560Z,27.05
2022-10-01T08:02:24.548Z,27.18
2022-10-01T08:05:09.853Z,27.33
2022-10-01T08:07:37.872Z,27.34
2022-10-01T08:10:06.797Z,27.32
2022-10-01T08:12:34.832Z,27.35
2022-10-01T08:15:04.266Z,27.39
2022-10-01T08:17:32.255Z,27.51
2022-10-01T08:20:00.226Z,27.61
2022-10-01T08:22:28.186Z,27.72
2022-10-01T08:24:56.139Z,27.86
2022-10-01T08:27:25.260Z,27.97
2022-10-01T08:29:53.711Z,28.01
2022-10-01T08:32:23.436Z,28.24
2022-10-01T08:34:56.546Z,28.42
2022-10-01T08:37:28.324Z,28.56
2022-10-01T08:39:56.348Z,28.73
2022-10-01T08:42:36.467Z,28.73
2022-10-01T08:45:06.980Z,28.91
2022-10-01T08:47:38.255Z,29.11
2022-10-01T08:50:09.223Z,29.44
2022-10-01T08:52:38.830Z,29.65
2022-10-01T08:55:07.781Z,29.84
2022-10-01T08:57:37.942Z,29.88
2022-10-01T09:00:07.968Z,29.79
2022-10-01T09:02:39.479Z,29.99
2022-10-01T09:05:11.292Z,30.17
2022-10-01T09:07:53.065Z,30.47
2022-10-01T09:10:26.730Z,30.66
2022-10-01T09:13:00.523Z,30.71
2022-10-01T09:15:31.064Z,30.82
2022-10-01T09:18:08.773Z,30.76
2022-10-01T09:20:37.692Z,30.73
2022-10-01T09:23:17.273Z,30.81
2022-10-01T09:25:45.970Z,30.76
2022-10-01T09:28:16.537Z,30.90
2022-10-01T09:30:46.365Z,31.24
2022-10-01T09:33:16.961Z,31.53
2022-10-01T09:35:46.218Z,31.82
2022-10-01T09:38:17.216Z,32.00
2022-10-01T09:40:49.406Z,32.16
2022-10-01T09:43:19.990Z,32.46
2022-10-01T09:45:48.346Z,32.50
2022-10-01T09:48:21.264Z,32.70
2022-10-01T09:50:56.492Z,32.99
2022-10-01T09:53:27.595Z,33.19
2022-10-01T09:55:57.343Z,33.27
2022-10-01T09:58:26.750Z,33.31
2022-10-01T10:00:54.796Z,33.41
2022-10-01T10:03:27.477Z,33.71
2022-10-01T10:05:55.519Z,33.89
2022-10-01T10:08:27.497Z,33.96
2022-10-01T10:10:58.525Z,34.26
2022-10-01T10:13:31.940Z,34.47
2022-10-01T10:16:00.005Z,34.50
2022-10-01T10:18:34.020Z,34.32
2022-10-01T10:21:03.663Z,34.06
2022-10-01T10:23:31.684Z,33.74
2022-10-01T10:26:01.213Z,33.86
2022-10-01T10:28:29.797Z,33.63
2022-10-01T10:30:57.851Z,33.85
2022-10-01T10:33:26.418Z,33.97
2022-10-01T10:36:06.454Z,34.08
2022-10-01T10:38:35.256Z,34.32
2022-10-01T10:41:03.932Z,34.53
2022-10-01T10:43:34.652Z,34.64
2022-10-01T10:46:03.767Z,34.36
2022-10-01T10:48:32.959Z,34.53
2022-10-01T10:51:01.614Z,34.41
2022-10-01T10:53:33.541Z,34.47
2022-10-01T10:56:02.448Z,34.68
2022-10-01T10:58:31.064Z,34.75
2022-10-01T11:01:00.966Z,34.61
2022-10-01T11:03:29.667Z,34.87
2022-10-01T11:05:57.968Z,34.70
2022-10-01T11:08:27.926Z,34.28
2022-10-01T11:11:04.269Z,33.87
2022-10-01T11:13:52.113Z,33.75
2022-10-01T11:16:30.116Z,33.60
2022-10-01T11:19:07.888Z,33.38
2022-10-01T11:21:50.330Z,33.17
2022-10-01T11:24:37.142Z,33.25
2022-10-01T11:27:08.888Z,33.06
2022-10-01T11:29:42.416Z,32.93
2022-10-01T11:32:19.447Z,32.76
2022-10-01T11:35:06.528Z,32.81
2022-10-01T11:37:59.896Z,32.80
2022-10-01T11:40:30.156Z,32.70
2022-10-01T11:43:02.015Z,32.65
2022-10-01T11:45:32.112Z,32.54
2022-10-01T11:48:01.473Z,32.29
2022-10-01T11:50:29.896Z,32.12
2022-10-01T11:52:59.401Z,32.04
2022-10-01T11:55:46.276Z,31.94
2022-10-01T11:58:34.862Z,31.84
2022-10-01T12:01:09.615Z,31.84
2022-10-01T12:03:44.064Z,31.90
2022-10-01T12:06:14.430Z,32.01
2022-10-01T12:08:42.492Z,32.25
2022-10-01T12:11:16.231Z,32.41
2022-10-01T12:13:46.939Z,32.50
2022-10-01T12:16:17.181Z,32.57
2022-10-01T12:18:51.166Z,32.56
2022-10-01T12:21:21.837Z,32.68
2022-10-01T12:23:52.128Z,32.57
2022-10-01T12:26:25.858Z,32.51
2022-10-01T12:29:00.346Z,32.43
2022-10-01T12:31:30.115Z,32.15
2022-10-01T12:34:04.567Z,31.82
2022-10-01T12:36:39.149Z,31.42
2022-10-01T12:39:17.110Z,31.33
2022-10-01T12:41:59.680Z,31.51
2022-10-01T12:44:37.303Z,31.74
2022-10-01T12:47:15.053Z,31.89
2022-10-01T12:49:45.414Z,32.01
2022-10-01T12:52:16.540Z,31.82
2022-10-01T12:54:50.743Z,31.92
2022-10-01T12:57:37.056Z,31.91
2022-10-01T13:00:13.695Z,31.64
2022-10-01T13:03:06.307Z,31.38
2022-10-01T13:05:37.158Z,31.23
2022-10-01T13:08:13.715Z,31.28
2022-10-01T13:10:49.789Z,31.22
2022-10-01T13:13:18.506Z,31.01
2022-10-01T13:15:49.574Z,30.84
2022-10-01T13:18:25.290Z,30.91
2022-10-01T13:20:57.726Z,30.88
2022-10-01T13:23:29.655Z,30.80
2022-10-01T13:26:02.754Z,30.76
2022-10-01T13:28:33.939Z,30.45
2022-10-01T13:31:12.410Z,30.33
2022-10-01T13:33:40.426Z,30.14
2022-10-01T13:36:09.028Z,30.14
2022-10-01T13:38:42.625Z,30.33
2022-10-01T13:41:19.241Z,30.44
2022-10-01T13:43:57.265Z,30.47
2022-10-01T13:46:28.466Z,30.44
2022-10-01T13:48:57.255Z,30.17
2022-10-01T13:51:35.117Z,29.99
2022-10-01T13:54:03.130Z,29.83
2022-10-01T13:56:32.249Z,29.71
2022-10-01T13:59:00.490Z,29.64
2022-10-01T14:01:32.076Z,29.50
2022-10-01T14:04:03.937Z,29.26
2022-10-01T14:06:33.333Z,29.17
2022-10-01T14:09:05.043Z,29.14
2022-10-01T14:11:51.532Z,29.09
2022-10-01T14:14:39.515Z,29.09
2022-10-01T14:17:09.447Z,28.85
2022-10-01T14:19:37.385Z,28.82
2022-10-01T14:22:19.081Z,28.79
2022-10-01T14:24:56.697Z,28.68
2022-10-01T14:27:26.794Z,28.75
2022-10-01T14:30:02.011Z,28.78
2022-10-01T14:32:36.166Z,28.64
2022-10-01T14:35:09.986Z,28.69
2022-10-01T14:37:38.954Z,28.63
2022-10-01T14:40:15.747Z,28.46
2022-10-01T14:42:43.728Z,28.33
2022-10-01T14:45:19.066Z,28.12
2022-10-01T14:47:49.884Z,27.98
2022-10-01T14:50:20.314Z,27.89
2022-10-01T14:52:51.045Z,27.81
2022-10-01T14:55:21.328Z,27.73
2022-10-01T14:57:50.553Z,27.68
2022-10-01T15:00:19.334Z,27.60
2022-10-01T15:02:49.530Z,27.52
2022-10-01T15:05:22.965Z,27.46
2022-10-01T15:07:50.954Z,27.40
2022-10-01T15:10:19.320Z,27.35
2022-10-01T15:12:48.411Z,27.33
2022-10-01T15:15:18.869Z,27.28
2022-10-01T15:17:48.199Z,27.18
2022-10-01T15:20:16.235Z,27.10
2022-10-01T15:22:44.244Z,26.91
2022-10-01T15:25:16.671Z,26.82
2022-10-01T15:27:44.654Z,26.62
2022-10-01T15:30:15.215Z,26.49
2022-10-01T15:32:43.139Z,26.39
2022-10-01T15:35:13.158Z,26.22
2022-10-01T15:37:41.558Z,26.06
2022-10-01T15:40:21.569Z,26.00
2022-10-01T15:43:12.899Z,25.74
2022-10-01T15:45:40.871Z,25.74
2022-10-01T15:48:20.946Z,25.63
2022-10-01T15:50:50.285Z,25.48
2022-10-01T15:53:19.550Z,25.33
2022-10-01T15:55:48.349Z,25.21
2022-10-01T15:58:18.274Z,25.10
2022-10-01T16:00:57.786Z,25.03
2022-10-01T16:03:29.230Z,24.95
2022-10-01T16:05:59.255Z,24.85
2022-10-01T16:08:34.205Z,24.76
2022-10-01T16:11:17.886Z,24.68
2022-10-01T16:13:45.914Z,24.59
2022-10-01T16:16:22.199Z,24.52
2022-10-01T16:18:52.539Z,24.43
2022-10-01T16:21:21.992Z,24.32
2022-10-01T16:23:50.430Z,24.21
2022-10-01T16:26:41.106Z,24.07
2022-10-01T16:29:20.415Z,23.99
2022-10-01T16:31:48.419Z,23.87
2022-10-01T16:34:17.752Z,23.72
2022-10-01T16:36:47.166Z,23.63
2022-10-01T16:39:15.469Z,23.50
2022-10-01T16:41:44.137Z,23.46
2022-10-01T16:44:13.219Z,23.33
2022-10-01T16:46:41.533Z,23.27
2022-10-01T16:49:14.171Z,23.17
2022-10-01T16:51:42.490Z,23.08
2022-10-01T16:54:23.430Z,22.99
2022-10-01T16:56:52.374Z,22.89
2022-10-01T16:59:22.750Z,22.78
2022-10-01T17:01:51.435Z,22.69
2022-10-01T17:04:19.768Z,22.56
2022-10-01T17:06:48.201Z,22.58
2022-10-01T17:09:16.150Z,22.52
2022-10-01T17:11:46.441Z,22.45
2022-10-01T17:14:16.721Z,22.38
2022-10-01T17:16:45.483Z,22.37
2022-10-01T17:19:14.749Z,22.32
2022-10-01T17:21:42.806Z,22.27
2022-10-01T17:24:11.550Z,22.22
2022-10-01T17:26:40.596Z,22.22
2022-10-01T17:29:10.283Z,22.21
2022-10-01T17:31:38.488Z,22.17
2022-10-01T17:34:06.520Z,22.18
2022-10-01T17:36:35.546Z,22.16
2022-10-01T17:39:03.700Z,22.14
2022-10-01T17:41:31.624Z,22.16
2022-10-01T17:43:59.581Z,22.19
2022-10-01T17:46:30.006Z,22.21
2022-10-01T17:48:57.972Z,22.23
2022-10-01T17:51:26.165Z,22.26
2022-10-01T17:53:54.975Z,22.26
2022-10-01T17:56:22.939Z,22.26
2022-10-01T17:58:50.915Z,22.29
2022-10-01T18:01:21.240Z,22.30
2022-10-01T18:03:53.255Z,22.24
2022-10-01T18:06:21.244Z,22.35
2022-10-01T18:08:56.916Z,22.45
2022-10-01T18:11:25.168Z,22.51
2022-10-01T18:13:53.192Z,22.61
2022-10-01T18:16:21.180Z,22.65
2022-10-01T18:21:43.429Z,22.72
2022-10-01T18:24:11.483Z,22.75
2022-10-01T18:26:39.671Z,22.79
2022-10-01T18:29:07.788Z,22.75
2022-10-01T18:31:36.541Z,22.74
2022-10-01T18:34:12.532Z,22.74
2022-10-01T18:36:43.241Z,22.67
2022-10-01T18:39:15.262Z,22.67
2022-10-01T18:41:43.283Z,22.70
2022-10-01T18:44:11.388Z,22.68
2022-10-01T18:47:04.414Z,22.64
2022-10-01T18:50:02.633Z,22.52
2022-10-01T18:52:36.837Z,22.58
2022-10-01T18:55:21.153Z,22.52
2022-10-01T18:57:58.352Z,22.52
2022-10-01T19:00:27.079Z,22.39
2022-10-01T19:03:17.174Z,22.23
2022-10-01T19:06:05.737Z,22.09
2022-10-01T19:08:50.469Z,21.95
2022-10-01T19:11:21.040Z,21.84
2022-10-01T19:13:51.414Z,21.69
2022-10-01T19:16:27.511Z,21.69
2022-10-01T19:19:03.182Z,21.64
2022-10-01T19:21:34.424Z,21.56
2022-10-01T19:24:23.196Z,21.52
2022-10-01T19:26:57.305Z,21.47
2022-10-01T19:29:34.022Z,21.38
2022-10-01T19:32:03.003Z,21.47
2022-10-01T19:34:32.251Z,21.45
2022-10-01T19:37:03.558Z,21.42
2022-10-01T19:39:33.526Z,21.33
2022-10-01T19:42:03.055Z,21.31
2022-10-01T19:44:36.589Z,21.26
2022-10-01T19:47:17.857Z,21.22
2022-10-01T19:49:45.933Z,21.29
2022-10-01T19:52:18.296Z,21.28
2022-10-01T19:54:49.499Z,21.36
2022-10-01T19:57:21.946Z,21.38
2022-10-01T19:59:50.191Z,21.43
2022-10-01T20:02:27.911Z,21.37
2022-10-01T20:04:57.747Z,21.47
2022-10-01T20:07:28.534Z,21.66
2022-10-01T20:10:01.582Z,21.71
2022-10-01T20:12:36.191Z,21.72
2022-10-01T20:15:12.612Z,21.65
2022-10-01T20:17:47.940Z,21.92
2022-10-01T20:20:18.658Z,22.14
2022-10-01T20:22:53.957Z,22.39
2022-10-01T20:25:24.551Z,22.81
2022-10-01T20:27:55.545Z,22.96
2022-10-01T20:30:23.905Z,23.15
2022-10-01T20:32:56.763Z,23.42
2022-10-01T20:35:28.901Z,23.80
2022-10-01T20:38:06.927Z,23.83
2022-10-01T20:40:40.087Z,24.13
2022-10-01T20:43:11.282Z,24.19
2022-10-01T20:45:39.299Z,24.21
2022-10-01T20:48:11.512Z,24.24
2022-10-01T20:50:43.785Z,24.17
2022-10-01T20:53:18.216Z,24.02
2022-10-01T20:55:48.865Z,23.84
2022-10-01T20:58:18.403Z,23.79
2022-10-01T21:00:46.573Z,23.71
2022-10-01T21:03:24.101Z,23.55
2022-10-01T21:05:52.881Z,23.48
2022-10-01T21:08:30.351Z,23.04
2022-10-01T21:11:00.593Z,22.88
2022-10-01T21:13:33.734Z,22.71
2022-10-01T21:16:09.082Z,22.61
2022-10-01T21:18:40.977Z,22.49
2022-10-01T21:21:14.178Z,22.41
2022-10-01T21:23:51.818Z,22.40
2022-10-01T21:26:24.706Z,22.40
2022-10-01T21:29:10.444Z,22.47
2022-10-01T21:31:43.802Z,22.34
2022-10-01T21:34:14.547Z,22.33
2022-10-01T21:36:57.549Z,22.38
2022-10-01T21:39:31.735Z,22.24
2022-10-01T21:42:01.820Z,22.22
2022-10-01T21:45:02.159Z,21.58
2022-10-01T21:47:37.618Z,20.90
2022-10-01T21:50:10.200Z,20.23
2022-10-01T21:52:40.912Z,19.89
2022-10-01T21:55:26.176Z,19.69
2022-10-01T21:58:03.684Z,19.47
2022-10-01T22:00:32.834Z,19.32
2022-10-01T22:03:17.488Z,19.16
2022-10-01T22:05:50.409Z,19.15
2022-10-01T22:08:27.361Z,19.01
2022-10-01T22:10:57.963Z,18.89
2022-10-01T22:13:28.619Z,18.81
2022-10-01T22:15:57.823Z,18.89
2022-10-01T22:18:33.398Z,18.86
2022-10-01T22:21:01.858Z,18.82
2022-10-01T22:23:29.818Z,18.84
2022-10-01T22:26:00.084Z,18.83
2022-10-01T22:28:29.738Z,18.76
2022-10-01T22:30:57.761Z,18.77
2022-10-01T22:33:29.142Z,18.79
2022-10-01T22:35:59.203Z,18.75
2022-10-01T22:38:28.435Z,18.79
2022-10-01T22:40:59.799Z,18.83
2022-10-01T22:43:27.744Z,18.89
2022-10-01T22:46:09.437Z,18.95
2022-10-01T22:48:45.263Z,18.97
2022-10-01T22:51:20.775Z,18.99
2022-10-01T22:53:58.786Z,19.00
2022-10-01T22:56:31.007Z,18.97
2022-10-01T22:59:04.800Z,18.97
2022-10-01T23:01:37.646Z,18.98
2022-10-01T23:04:11.520Z,18.86
2022-10-01T23:06:42.321Z,19.07
2022-10-01T23:09:13.363Z,19.09
2022-10-01T23:11:47.535Z,19.16
2022-10-01T23:14:20.613Z,19.17
2022-10-01T23:16:51.999Z,19.17
2022-10-01T23:19:29.325Z,19.20
2022-10-01T23:22:00.295Z,19.24
2022-10-01T23:24:36.173Z,19.23
2022-10-01T23:27:08.752Z,19.18
2022-10-01T23:30:11.677Z,19.11
2022-10-01T23:32:48.131Z,19.10
2022-10-01T23:35:18.535Z,19.07
2022-10-01T23:38:02.306Z,19.06
2022-10-01T23:40:32.605Z,19.01
2022-10-01T23:43:03.726Z,19.03
2022-10-01T23:45:33.790Z,19.04
2022-10-01T23:48:04.768Z,19.04
2022-10-01T23:50:34.460Z,18.94
2022-10-01T23:53:08.588Z,18.96
2022-10-01T23:56:03.548Z,18.89
2022-10-01T23:58:36.438Z,19.00
